• Join FlightAware (Why Join?)
  • Login
  • US Flag 
02:11PM EDT


 

Airport Tracker/Info


-or-


 

Live Flight TrackerFlight Track Log ✈ EJA396 ✈ 22-Jul-2013 ✈ CYPD / YPS - KTEB

Flight Track Log - Related Links

Times and Time Zones

All times are in EDT time to prevent confusion due to time zone crossing. See the EJA396 flight status page for this flight to view local times or setup timezone preferences in your user account.

Time Position Orientation Groundspeed Altitude Reporting Facility
EDT Latitude Longitude Course Direction KTS MPH feet Rate Location/Type
03:13PM 45.6167 -61.4333 245° Southwest 160 184 6,200  Level Moncton Center
03:14PM 45.6000 -61.4833 245° Southwest 170 196 10,900 4,380 Climbing Moncton Center
03:15PM 45.5667 -61.5500 234° Southwest 200 230 15,000 3,720 Climbing Moncton Center
03:16PM 45.5333 -61.6500 245° Southwest 240 276 18,400 3,540 Climbing Moncton Center
03:17PM 45.5167 -61.7167 250° West 260 299 22,100 3,840 Climbing Moncton Center
03:18PM 45.4833 -61.8167 245° Southwest 260 299 26,100 2,820 Climbing Moncton Center
03:19PM 45.4500 -61.9167 245° Southwest 260 299 27,800 900 Climbing Moncton Center
03:20PM 45.4000 -62.0333 239° Southwest 320 368 28,000 600 Climbing Moncton Center
03:21PM 45.3500 -62.1833 245° Southwest 370 426 29,100 1,800 Climbing Moncton Center
03:22PM 45.3000 -62.3000 239° Southwest 360 414 31,700 2,460 Climbing Moncton Center
03:23PM 45.2667 -62.4167 248° West 350 403 34,100 2,400 Climbing Moncton Center
03:24PM 45.2167 -62.5167 235° Southwest 330 380 36,500 1,800 Climbing Moncton Center
03:25PM 45.1833 -62.6333 248° West 320 368 37,800 720 Climbing Moncton Center
03:26PM 45.1500 -62.7667 251° West 330 380 38,000 60 Climbing Moncton Center
03:27PM 45.1000 -62.9000 242° Southwest 360 414 38,000  Level Moncton Center
03:28PM 45.0500 -63.0167 239° Southwest 370 426 38,000  Level Moncton Center
03:29PM 45.0000 -63.1500 242° Southwest 370 426 38,000  Level Moncton Center
03:30PM 44.9500 -63.2667 239° Southwest 360 414 38,000  Level Moncton Center
03:31PM 44.9000 -63.4000 242° Southwest 370 426 38,000  Level Moncton Center
03:32PM 44.8500 -63.5167 239° Southwest 370 426 38,000  Level Moncton Center
03:33PM 44.8000 -63.6667 245° Southwest 370 426 38,000  Level Moncton Center
03:34PM 44.7500 -63.7833 239° Southwest 370 426 38,000  Level Moncton Center
03:35PM 44.7000 -63.9333 245° Southwest 370 426 38,000  Level Moncton Center
03:36PM 44.6500 -64.0500 239° Southwest 370 426 38,000  Level Moncton Center
03:37PM 44.6000 -64.1667 239° Southwest 370 426 38,000 540 Level Moncton Center
03:38PM 44.5500 -64.2833 239° Southwest 370 426 39,100 960 Climbing Moncton Center
03:39PM 44.5000 -64.4000 239° Southwest 360 414 40,000 420 Climbing Moncton Center
03:40PM 44.4500 -64.5333 242° Southwest 360 414 40,000  Level Moncton Center
03:41PM 44.4000 -64.6500 239° Southwest 370 426 40,000  Level Moncton Center
03:42PM 44.3500 -64.8000 245° Southwest 370 426 40,000  Level Moncton Center
03:43PM 44.3000 -64.9167 239° Southwest 370 426 40,000  Level Moncton Center
03:44PM 44.2500 -65.0333 239° Southwest 360 414 40,000  Level Moncton Center
03:45PM 44.2000 -65.1500 239° Southwest 360 414 40,000 60 Level Moncton Center
03:46PM 44.1500 -65.2667 239° Southwest 360 414 40,200 600 Climbing Moncton Center
03:47PM 44.1000 -65.4000 242° Southwest 350 403 41,200 960 Climbing Moncton Center
03:48PM 44.0500 -65.4833 230° Southwest 350 403 42,200 900 Climbing Moncton Center
03:49PM 44.0167 -65.6333 253° West 340 391 43,000 360 Climbing Moncton Center
03:50PM 43.9667 -65.7167 230° Southwest 340 391 43,000  Level Moncton Center
03:51PM 43.9167 -65.8333 239° Southwest 360 414 43,000  Level Moncton Center
03:52PM 43.8500 -65.9667 235° Southwest 370 426 43,000  Level Moncton Center
03:53PM 43.8000 -66.0833 239° Southwest 370 426 43,000  Level Moncton Center
03:54PM 43.7667 -66.2333 253° West 370 426 43,000  Level Moncton Center
03:55PM 43.7333 -66.3667 251° West 370 426 43,000  Level Moncton Center
03:56PM 43.7000 -66.5000 251° West 370 426 43,000  Level Moncton Center
03:57PM 43.6667 -66.6333 251° West 370 426 43,000  Level Moncton Center
03:58PM 43.6667 -66.8000 270° West 370 426 43,000  Level Moncton Center
03:59PM 43.6333 -66.9167 248° West 370 426 43,000  Level Moncton Center
04:00PM 43.6167 -67.0667 261° West 360 414 43,000  Level Moncton Center
04:01PM 43.6167 -67.1833 270° West 360 414 43,000  Level Moncton Center
04:01PM 43.6161 -67.2883 270° West 372 428 43,000  Level Boston Center
04:02PM 43.6014 -67.4244 262° West 372 428 43,000  Level Boston Center
04:03PM 43.5864 -67.5633 262° West 372 428 43,000  Level Boston Center
04:04PM 43.5714 -67.7022 262° West 372 428 43,000  Level Boston Center
04:05PM 43.5583 -67.8381 262° West 372 428 43,000  Level Boston Center
04:06PM 43.5428 -67.9711 261° West 372 428 43,000  Level Boston Center
04:07PM 43.5269 -68.1067 261° West 372 428 43,000  Level Boston Center
04:08PM 43.5133 -68.2425 262° West 372 428 43,000  Level Boston Center
04:09PM 43.4947 -68.4211 262° West 372 428 43,000  Level Boston Center
04:10PM 43.4786 -68.5569 261° West 372 428 43,000  Level Boston Center
04:11PM 43.4622 -68.6925 261° West 372 428 43,000  Level Boston Center
04:12PM 43.4478 -68.8250 262° West 372 428 43,000  Level Boston Center
04:13PM 43.4292 -68.9606 259° West 372 428 43,000  Level Boston Center
04:14PM 43.4144 -69.0956 262° West 372 428 43,000  Level Boston Center
04:15PM 43.3975 -69.2339 260° West 367 422 43,000  Level Boston Center
04:16PM 43.3836 -69.3375 260° West 367 422 43,000  Level Boston Center
04:17PM 43.3650 -69.5011 261° West 367 422 43,000  Level Boston Center
04:18PM 43.3536 -69.6244 263° West 362 417 43,000  Level Boston Center
04:20PM 43.3300 -69.7742 258° West 362 417 43,000  Level Boston Center
04:21PM 43.3108 -69.9347 261° West 367 422 43,000  Level Boston Center
04:22PM 43.2928 -70.0753 260° West 372 428 43,000  Level Boston Center
04:23PM 43.2808 -70.1956 262° West 372 428 43,000  Level Boston Center
04:24PM 43.2625 -70.3272 259° West 372 428 43,000  Level Boston Center
04:25PM 43.2442 -70.4647 260° West 372 428 43,000  Level Boston Center
04:26PM 43.2275 -70.6022 261° West 372 428 43,000  Level Boston Center
04:27PM 43.2089 -70.7367 259° West 372 428 43,000  Level Boston Center
04:28PM 43.1942 -70.8681 261° West 367 422 43,000 -60 Level Boston Center
04:29PM 43.1728 -71.0025 258° West 367 422 42,900 -540 Descending Boston Center
04:30PM 43.1536 -71.1394 259° West 367 422 42,000 -1,200 Descending Boston Center
04:31PM 43.1364 -71.2792 260° West 372 428 40,500 -1,620 Descending Boston Center
04:32PM 43.1131 -71.4389 259° West 383 441 38,800 -1,500 Descending Boston Center
04:33PM 43.0889 -71.5731 256° West 374 430 37,600 -1,260 Descending Boston Center
04:34PM 43.0711 -71.7125 260° West 368 423 36,300 -1,380 Descending Boston Center
04:35PM 43.0492 -71.8606 259° West 386 444 34,900 -1,380 Descending Boston Center
04:36PM 43.0289 -72.0028 259° West 392 451 33,600 -1,620 Descending Boston Center
04:37PM 43.0253 -72.1533 268° West 392 451 31,700 -1,980 Descending Boston Center
04:38PM 43.0422 -72.2894 280° West 397 457 29,700 -2,100 Descending Boston Center
04:39PM 43.0547 -72.4458 276° West 409 471 27,600 -1,920 Descending Boston Center
04:40PM 43.0694 -72.5708 279° West 414 476 26,000 -1,320 Descending Boston Center
04:41PM 43.0253 -72.7611 252° West 394 453 25,000 -540 Descending Boston Center
04:42PM 42.9892 -72.9028 251° West 394 453 25,000 -240 Level Boston Center
04:43PM 42.9594 -73.0331 253° West 400 460 24,600 -600 Descending Boston Center
04:44PM 42.9233 -73.1689 250° West 400 460 23,800 -1,440 Descending Boston Center
04:45PM 42.9014 -73.3131 258° West 394 453 21,800 -2,040 Descending Boston Center
04:46PM 42.8650 -73.4456 249° West 394 453 19,800 -2,100 Descending Boston Center
04:47PM 42.8178 -73.5836 245° Southwest 377 434 17,700 -1,920 Descending Boston Center
04:48PM 42.7767 -73.7103 246° West 371 427 16,000 -900 Descending Boston Center
04:49PM 42.7275 -73.8222 239° Southwest 376 433 16,000  Level Boston Center
04:50PM 42.6369 -73.8908 209° Southwest 360 414 16,000  Level Boston Center
04:51PM 42.5531 -73.9481 207° Southwest 373 429 16,000 -300 Level Boston Center
04:52PM 42.4561 -74.0189 208° Southwest 378 435 15,500 -1,080 Descending Boston Center
04:53PM 42.3592 -74.0922 209° Southwest 371 427 13,900 -1,560 Descending Boston Center
04:54PM 42.2675 -74.0953 181° South 343 395 12,400 -900 Descending Boston Center
04:55PM 42.1744 -74.0481 159° South 341 392 12,000 -180 Descending Boston Center
04:56PM 42.0647 -73.9894 158° South 348 400 12,100  Climbing Boston Center
04:57PM 41.9819 -73.9483 160° South 353 406 12,100  Level Boston Center
04:58PM 41.8825 -73.8956 158° South 353 406 12,100  Level Boston Center
04:59PM 41.7997 -73.8519 159° South 353 406 12,100 -180 Level Boston Center
05:00PM 41.7025 -73.7997 158° South 347 399 11,800 -960 Descending Boston Center
05:01PM 41.6236 -73.7592 159° South 347 399 10,200 -1,680 Descending Boston Center
05:02PM 41.5306 -73.7128 160° South 347 399 8,500 -1,140 Descending Boston Center
05:03PM 41.4661 -73.6783 158° South 295 339 8,000 -300 Descending Boston Center
05:04PM 41.3853 -73.6381 160° South 288 331 8,000 -840 Level Boston Center
05:05PM 41.3333 -73.6333 176° South 277 319 6,600 -1,680 Descending New York TRACON
05:06PM 41.3000 -73.7167 242° Southwest 268 308 5,100 -780 Descending New York TRACON
05:07PM 41.2833 -73.8167 258° West 272 313 5,100  Level New York TRACON
05:08PM 41.2667 -73.9000 255° West 260 299 5,100 -540 Level New York TRACON
05:09PM 41.2500 -74.0000 258° West 244 281 4,100 -540 Descending New York TRACON
05:10PM 41.2000 -74.0333 207° Southwest 231 266 4,100  Level New York TRACON
05:11PM 41.1333 -74.0333 180° South 235 270 4,100 -840 Level New York TRACON
05:12PM 41.0833 -74.0500 194° South 216 249 2,500 -1,020 Descending New York TRACON
05:13PM 41.0167 -74.0500 180° South 202 232 2,100 -240 Descending New York TRACON
05:14PM 40.9667 -74.0500 180° South 198 228 2,100 -360 Level New York TRACON
05:15PM 40.9167 -74.0500 180° South 164 189 1,400 -720 Descending New York TRACON
05:16PM 40.8833 -74.0500 180° South 124 143 700 -720 Descending New York TRACON
05:18PM 40.8500 -74.0500 180° South  Level FlightAware Approximate
05:25PM 40.8501 -74.0608 180° South  Level Estimated